Terminal Aerodrome Forecast
Issued by NWS

Home | Current Version | Previous Version | Text Only | Print | Product List | Glossary On
Versions: 1 2 3 4 5 6 7 8 9 10 11 12 13 14 15 16 17 18 19
996
FTUS44 KTSA 221100
TAFRVS
TAF
KRVS 221131Z 2212/2312 12006KT P6SM BKN250
      TEMPO 2213/2217 3SM -RA BKN030
     FM221700 15007KT P6SM OVC100
     FM230000 09006KT P6SM OVC050
     FM230600 13007KT P6SM OVC050 PROB30 2306/2312 3SM TSRA
      BKN030CB=

USA.gov is the U.S. government's official web portal to all federal, state and local government web resources and services.